createdAt,value
2023-02-19T00:01:41.112Z,252.27
2023-02-19T00:04:12.092Z,254.18
2023-02-19T00:06:39.734Z,251.88
2023-02-19T00:09:07.600Z,260.05
2023-02-19T00:11:36.388Z,264.50
2023-02-19T00:14:05.083Z,267.35
2023-02-19T00:16:35.740Z,241.40
2023-02-19T00:19:05.261Z,245.68
2023-02-19T00:21:33.381Z,261.83
2023-02-19T00:24:02.458Z,260.05
2023-02-19T00:26:30.768Z,256.00
2023-02-19T00:28:59.339Z,255.13
2023-02-19T00:31:31.492Z,241.70
2023-02-19T00:34:03.788Z,244.20
2023-02-19T00:36:32.461Z,258.48
2023-02-19T00:39:00.136Z,242.63
2023-02-19T00:41:28.900Z,247.88
2023-02-19T00:43:59.499Z,251.75
2023-02-19T00:46:29.619Z,247.85
2023-02-19T00:48:58.026Z,238.88
2023-02-19T00:51:29.473Z,241.55
2023-02-19T00:53:57.667Z,245.73
2023-02-19T00:56:25.421Z,245.48
2023-02-19T00:58:53.196Z,248.32
2023-02-19T01:01:21.929Z,248.90
2023-02-19T01:03:50.410Z,247.18
2023-02-19T01:06:20.857Z,241.65
2023-02-19T01:08:50.511Z,239.82
2023-02-19T01:11:20.266Z,237.88
2023-02-19T01:13:48.013Z,260.45
2023-02-19T01:16:17.476Z,257.67
2023-02-19T01:18:46.220Z,264.50
2023-02-19T01:21:16.164Z,247.38
2023-02-19T01:23:44.971Z,251.50
2023-02-19T01:26:15.944Z,238.75
2023-02-19T01:28:43.734Z,245.90
2023-02-19T01:31:14.681Z,253.77
2023-02-19T01:33:45.846Z,252.40
2023-02-19T01:36:14.217Z,258.30
2023-02-19T01:38:42.486Z,255.32
2023-02-19T01:41:15.123Z,254.50
2023-02-19T01:44:03.869Z,251.75
2023-02-19T01:46:33.127Z,247.35
2023-02-19T01:49:04.797Z,256.80
2023-02-19T01:51:35.008Z,229.00
2023-02-19T01:54:05.885Z,245.30
2023-02-19T01:56:38.311Z,258.77
2023-02-19T01:59:27.092Z,244.07
2023-02-19T02:01:54.867Z,246.33
2023-02-19T02:04:22.888Z,255.63
2023-02-19T02:06:52.658Z,243.47
2023-02-19T02:09:39.885Z,254.30
2023-02-19T02:12:09.079Z,245.13
2023-02-19T02:14:39.834Z,261.80
2023-02-19T02:17:21.251Z,258.93
2023-02-19T02:20:07.681Z,254.00
2023-02-19T02:22:41.882Z,244.73
2023-02-19T02:25:37.084Z,268.80
2023-02-19T02:28:23.336Z,253.20
2023-02-19T02:30:57.057Z,250.80
2023-02-19T02:33:33.880Z,240.82
2023-02-19T02:36:07.180Z,248.77
2023-02-19T02:38:38.795Z,252.38
2023-02-19T02:41:07.604Z,265.83
2023-02-19T02:43:35.630Z,252.40
2023-02-19T02:46:06.398Z,250.07
2023-02-19T02:48:41.871Z,239.77
2023-02-19T02:51:16.927Z,255.80
2023-02-19T02:54:12.111Z,232.87
2023-02-19T02:56:42.420Z,241.63
2023-02-19T02:59:13.637Z,250.73
2023-02-19T03:02:02.702Z,248.87
2023-02-19T03:04:36.325Z,252.17
2023-02-19T03:07:08.874Z,238.63
2023-02-19T03:09:41.408Z,247.27
2023-02-19T03:12:33.549Z,245.80
2023-02-19T03:15:26.179Z,236.53
2023-02-19T03:18:17.753Z,232.30
2023-02-19T03:20:49.498Z,232.07
2023-02-19T03:23:20.215Z,223.90
2023-02-19T03:26:05.885Z,242.13
2023-02-19T03:29:09.717Z,206.67
2023-02-19T03:31:40.760Z,219.60
2023-02-19T03:34:16.146Z,204.33
2023-02-19T03:36:46.628Z,204.57
2023-02-19T03:39:18.385Z,219.13
2023-02-19T03:41:54.801Z,187.70
2023-02-19T03:44:29.361Z,215.60
2023-02-19T03:47:03.624Z,206.87
2023-02-19T03:49:43.500Z,203.07
2023-02-19T03:52:17.477Z,207.40
2023-02-19T03:54:53.891Z,189.37
2023-02-19T03:57:26.736Z,192.40
2023-02-19T04:00:00.389Z,191.97
2023-02-19T04:02:33.791Z,189.87
2023-02-19T04:05:08.938Z,190.40
2023-02-19T04:07:41.098Z,208.50
2023-02-19T04:10:10.860Z,198.10
2023-02-19T04:12:49.393Z,206.17
2023-02-19T04:15:22.587Z,197.50
2023-02-19T04:17:55.847Z,203.37
2023-02-19T04:20:28.728Z,205.97
2023-02-19T04:22:57.285Z,227.67
2023-02-19T04:25:27.153Z,212.97
2023-02-19T04:27:55.284Z,203.93
2023-02-19T04:30:23.349Z,207.97
2023-02-19T04:32:51.226Z,208.37
2023-02-19T04:35:18.889Z,218.00
2023-02-19T04:37:47.948Z,234.63
2023-02-19T04:40:15.617Z,224.77
2023-02-19T04:42:43.296Z,215.77
2023-02-19T04:45:10.945Z,205.50
2023-02-19T04:47:38.617Z,212.27
2023-02-19T04:50:07.745Z,222.40
2023-02-19T04:52:35.452Z,206.83
2023-02-19T04:55:04.831Z,243.37
2023-02-19T04:57:32.528Z,231.87
2023-02-19T05:00:00.198Z,226.20
2023-02-19T05:02:27.892Z,239.53
2023-02-19T05:04:55.536Z,225.97
2023-02-19T05:07:23.190Z,239.97
2023-02-19T05:09:50.834Z,227.80
2023-02-19T05:12:19.856Z,221.13
2023-02-19T05:14:47.511Z,224.97
2023-02-19T05:17:15.216Z,236.07
2023-02-19T05:19:42.918Z,252.97
2023-02-19T05:22:10.560Z,257.30
2023-02-19T05:24:38.169Z,245.57
2023-02-19T05:27:05.792Z,255.67
2023-02-19T05:29:34.831Z,227.40
2023-02-19T05:32:02.489Z,236.07
2023-02-19T05:34:30.182Z,244.47
2023-02-19T05:36:57.791Z,251.23
2023-02-19T05:39:25.404Z,240.90
2023-02-19T05:41:53.097Z,262.50
2023-02-19T05:44:20.729Z,231.70
2023-02-19T05:46:49.712Z,251.10
2023-02-19T05:49:17.344Z,248.40
2023-02-19T05:51:45.155Z,254.80
2023-02-19T05:54:12.897Z,255.47
2023-02-19T05:56:42.149Z,247.60
2023-02-19T05:59:16.867Z,264.27
2023-02-19T06:01:44.870Z,259.27
2023-02-19T06:04:15.495Z,244.67
2023-02-19T06:06:43.449Z,260.47
2023-02-19T06:09:11.645Z,266.47
2023-02-19T06:11:40.413Z,255.37
2023-02-19T06:14:08.420Z,258.00
2023-02-19T06:16:36.082Z,259.60
2023-02-19T06:19:04.362Z,254.70
2023-02-19T06:21:33.414Z,273.13
2023-02-19T06:24:06.021Z,278.07
2023-02-19T06:26:33.949Z,266.43
2023-02-19T06:29:01.656Z,281.07
2023-02-19T06:31:29.526Z,271.37
2023-02-19T06:33:57.236Z,273.20
2023-02-19T06:36:26.109Z,276.10
2023-02-19T06:38:55.140Z,283.03
2023-02-19T06:41:22.813Z,300.00
2023-02-19T06:43:50.648Z,275.80
2023-02-19T06:46:18.376Z,272.37
2023-02-19T06:48:46.556Z,286.37
2023-02-19T06:51:16.084Z,262.33
2023-02-19T06:53:43.790Z,279.03
2023-02-19T06:56:25.423Z,273.77
2023-02-19T06:58:53.437Z,262.20
2023-02-19T07:01:21.479Z,283.50
2023-02-19T07:03:49.203Z,283.60
2023-02-19T07:06:17.060Z,284.83
2023-02-19T07:08:44.752Z,279.07
2023-02-19T07:11:12.593Z,288.47
2023-02-19T07:13:41.720Z,292.70
2023-02-19T07:16:11.005Z,261.10
2023-02-19T07:18:39.938Z,273.17
2023-02-19T07:21:10.650Z,276.30
2023-02-19T07:23:38.793Z,286.13
2023-02-19T07:26:10.253Z,264.37
2023-02-19T07:28:37.943Z,273.17
2023-02-19T07:31:07.418Z,292.00
2023-02-19T07:33:35.075Z,289.43
2023-02-19T07:36:02.903Z,288.07
2023-02-19T07:38:30.612Z,278.10
2023-02-19T07:41:00.275Z,279.37
2023-02-19T07:43:30.132Z,277.47
2023-02-19T07:45:57.903Z,282.60
2023-02-19T07:48:26.965Z,305.90
2023-02-19T07:50:55.354Z,270.20
2023-02-19T07:53:24.250Z,286.10
2023-02-19T07:55:52.611Z,307.33
2023-02-19T07:58:20.460Z,289.60
2023-02-19T08:00:48.214Z,285.23
2023-02-19T08:03:15.930Z,296.07
2023-02-19T08:05:45.271Z,291.60
2023-02-19T08:08:14.821Z,291.90
2023-02-19T08:11:00.319Z,295.27
2023-02-19T08:13:30.102Z,281.83
2023-02-19T08:16:20.090Z,281.90
2023-02-19T08:18:50.080Z,270.98
2023-02-19T08:21:20.441Z,265.63
2023-02-19T08:23:50.862Z,276.23
2023-02-19T08:26:19.533Z,298.33
2023-02-19T08:28:47.294Z,281.13
2023-02-19T08:31:15.467Z,277.95
2023-02-19T08:33:43.213Z,276.88
2023-02-19T08:36:12.348Z,269.42
2023-02-19T08:38:41.435Z,286.23
2023-02-19T08:41:11.609Z,285.55
2023-02-19T08:43:40.207Z,279.85
2023-02-19T08:46:09.945Z,257.73
2023-02-19T08:48:38.531Z,270.88
2023-02-19T08:51:09.799Z,262.48
2023-02-19T08:53:39.617Z,280.00
2023-02-19T08:56:09.863Z,287.05
2023-02-19T08:58:37.730Z,261.55
2023-02-19T09:01:09.682Z,282.77
2023-02-19T09:03:37.809Z,267.65
2023-02-19T09:06:05.931Z,270.27
2023-02-19T09:08:33.659Z,263.10
2023-02-19T09:11:03.349Z,265.08
2023-02-19T09:13:32.590Z,274.67
2023-02-19T09:16:00.313Z,273.40
2023-02-19T09:18:28.105Z,274.85
2023-02-19T09:20:57.600Z,259.83
2023-02-19T09:23:25.371Z,284.73
2023-02-19T09:25:58.481Z,298.73
2023-02-19T09:28:26.646Z,286.45
2023-02-19T09:30:56.023Z,287.45
2023-02-19T09:33:23.938Z,317.63
2023-02-19T09:35:51.755Z,279.98
2023-02-19T09:38:19.419Z,272.70
2023-02-19T09:40:47.327Z,287.27
2023-02-19T09:43:19.792Z,260.90
2023-02-19T09:45:47.930Z,268.92
2023-02-19T09:48:16.953Z,286.83
2023-02-19T09:50:48.828Z,286.05
2023-02-19T09:53:21.757Z,290.33
2023-02-19T09:55:50.170Z,276.05
2023-02-19T09:58:27.059Z,297.52
2023-02-19T10:00:56.897Z,286.42
2023-02-19T10:03:31.771Z,295.20
2023-02-19T10:06:01.731Z,265.55
2023-02-19T10:08:33.859Z,290.73
2023-02-19T10:11:03.666Z,264.25
2023-02-19T10:13:34.577Z,289.88
2023-02-19T10:16:05.220Z,293.13
2023-02-19T10:18:41.100Z,288.30
2023-02-19T10:21:11.840Z,270.30
2023-02-19T10:23:41.854Z,311.73
2023-02-19T10:26:09.580Z,301.33
2023-02-19T10:28:37.356Z,303.63
2023-02-19T10:31:08.132Z,296.90
2023-02-19T10:33:50.178Z,297.42
2023-02-19T10:36:26.318Z,280.42
2023-02-19T10:38:55.093Z,272.40
2023-02-19T10:41:25.280Z,305.65
2023-02-19T10:43:56.704Z,298.83
2023-02-19T10:46:27.851Z,286.67
2023-02-19T10:48:59.342Z,291.13
2023-02-19T10:51:34.096Z,312.08
2023-02-19T10:54:07.981Z,289.55
2023-02-19T10:56:38.415Z,304.10
2023-02-19T10:59:22.121Z,303.92
2023-02-19T11:01:57.461Z,303.73
2023-02-19T11:04:27.421Z,270.92
2023-02-19T11:06:55.518Z,296.33
2023-02-19T11:09:27.958Z,299.52
2023-02-19T11:11:57.785Z,301.58
2023-02-19T11:14:27.922Z,297.77
2023-02-19T11:16:57.768Z,328.55
2023-02-19T11:19:32.093Z,320.60
2023-02-19T11:22:01.461Z,308.90
2023-02-19T11:24:35.092Z,305.27
2023-02-19T11:27:04.990Z,302.13
2023-02-19T11:29:34.808Z,316.08
2023-02-19T11:32:27.753Z,326.20
2023-02-19T11:35:19.580Z,338.40
2023-02-19T11:37:59.023Z,322.65
2023-02-19T11:40:40.050Z,332.02
2023-02-19T11:43:22.366Z,347.60
2023-02-19T11:46:01.054Z,336.75
2023-02-19T11:48:43.443Z,334.80
2023-02-19T11:51:31.720Z,338.73
2023-02-19T11:54:11.254Z,328.48
2023-02-19T11:56:43.056Z,336.58
2023-02-19T11:59:19.481Z,341.88
2023-02-19T12:02:03.550Z,327.38
2023-02-19T12:05:01.032Z,324.02
2023-02-19T12:08:00.248Z,316.67
2023-02-19T12:10:36.533Z,307.73
2023-02-19T12:13:12.302Z,315.75
2023-02-19T12:15:52.442Z,305.98
2023-02-19T12:18:36.569Z,309.25
2023-02-19T12:21:18.622Z,297.13
2023-02-19T12:24:03.251Z,295.90
2023-02-19T12:26:35.084Z,296.25
2023-02-19T12:29:17.849Z,304.85
2023-02-19T12:32:04.442Z,284.73
2023-02-19T12:34:44.426Z,284.85
2023-02-19T12:37:24.430Z,270.42
2023-02-19T12:40:13.403Z,302.13
2023-02-19T12:42:53.045Z,293.42
2023-02-19T12:45:26.472Z,298.60
2023-02-19T12:48:02.609Z,337.73
2023-02-19T12:50:32.768Z,333.83
2023-02-19T12:53:07.164Z,330.48
2023-02-19T12:55:40.026Z,334.63
2023-02-19T12:58:16.640Z,321.40
2023-02-19T13:00:50.426Z,328.52
2023-02-19T13:03:23.712Z,328.42
2023-02-19T13:05:56.030Z,351.98
2023-02-19T13:08:28.380Z,323.40
2023-02-19T13:11:02.237Z,323.08
2023-02-19T13:13:35.425Z,309.92
2023-02-19T13:16:09.783Z,305.75
2023-02-19T13:18:42.855Z,273.88
2023-02-19T13:21:12.263Z,274.40
2023-02-19T13:24:03.011Z,291.73
2023-02-19T13:26:46.233Z,271.88
2023-02-19T13:29:26.771Z,269.42
2023-02-19T13:32:15.541Z,277.02
2023-02-19T13:34:56.564Z,267.98
2023-02-19T13:37:25.038Z,249.32
2023-02-19T13:39:55.570Z,268.52
2023-02-19T13:42:28.325Z,274.70
2023-02-19T13:44:58.060Z,283.30
2023-02-19T13:47:48.000Z,268.63
2023-02-19T13:50:22.627Z,267.30
2023-02-19T13:52:50.991Z,268.33
2023-02-19T13:55:52.366Z,278.63
2023-02-19T13:58:55.751Z,272.77
2023-02-19T14:02:13.432Z,270.42
2023-02-19T14:04:53.693Z,270.70
2023-02-19T14:07:43.951Z,272.17
2023-02-19T14:10:15.026Z,273.48
2023-02-19T14:12:42.862Z,294.45
2023-02-19T14:15:44.863Z,279.00
2023-02-19T14:18:45.296Z,259.55
2023-02-19T14:21:18.683Z,258.17
2023-02-19T14:23:52.714Z,273.70
2023-02-19T14:26:20.930Z,268.90
2023-02-19T14:28:50.750Z,281.60
2023-02-19T14:31:27.133Z,274.80
2023-02-19T14:33:56.735Z,275.33
2023-02-19T14:36:45.235Z,284.85
2023-02-19T14:39:17.843Z,263.10
2023-02-19T14:41:49.396Z,268.48
2023-02-19T14:44:21.249Z,283.30
2023-02-19T14:46:55.757Z,282.27
2023-02-19T14:49:29.667Z,278.35
2023-02-19T14:52:00.965Z,279.17
2023-02-19T14:54:43.993Z,292.92
2023-02-19T14:57:17.165Z,277.50
2023-02-19T14:59:55.315Z,274.35
2023-02-19T15:02:25.933Z,264.55
2023-02-19T15:04:54.209Z,281.40
2023-02-19T15:07:25.030Z,274.58
2023-02-19T15:09:58.522Z,278.42
2023-02-19T15:12:29.032Z,273.70
2023-02-19T15:15:00.780Z,267.30
2023-02-19T15:17:32.628Z,287.15
2023-02-19T15:20:05.925Z,285.70
2023-02-19T15:22:34.155Z,285.05
2023-02-19T15:25:02.660Z,294.92
2023-02-19T15:27:30.610Z,307.55
2023-02-19T15:29:58.232Z,311.67
2023-02-19T15:32:27.487Z,299.33
2023-02-19T15:34:57.840Z,281.83
2023-02-19T15:37:27.891Z,285.05
2023-02-19T15:39:57.238Z,306.63
2023-02-19T15:42:27.529Z,312.00
2023-02-19T15:44:59.127Z,278.85
2023-02-19T15:47:33.352Z,285.50
2023-02-19T15:50:08.004Z,295.35
2023-02-19T15:52:44.739Z,291.63
2023-02-19T15:55:24.313Z,306.65
2023-02-19T15:57:59.400Z,292.13
2023-02-19T16:00:33.380Z,294.50
2023-02-19T16:03:02.195Z,301.45
2023-02-19T16:05:36.960Z,288.50
2023-02-19T16:08:17.470Z,298.08
2023-02-19T16:10:55.772Z,294.10
2023-02-19T16:13:27.871Z,305.48
2023-02-19T16:16:07.450Z,305.67
2023-02-19T16:18:36.237Z,291.83
2023-02-19T16:21:09.661Z,297.48
2023-02-19T16:23:42.932Z,300.50
2023-02-19T16:26:11.167Z,307.88
2023-02-19T16:28:41.224Z,295.23
2023-02-19T16:31:11.669Z,294.88
2023-02-19T16:33:41.707Z,298.63
2023-02-19T16:36:41.295Z,283.08
2023-02-19T16:39:20.227Z,285.90
2023-02-19T16:42:19.241Z,274.15
2023-02-19T16:44:48.435Z,259.23
2023-02-19T16:47:32.489Z,289.85
2023-02-19T16:50:03.013Z,281.42
2023-02-19T16:52:32.177Z,319.33
2023-02-19T16:54:59.823Z,285.42
2023-02-19T16:57:27.456Z,305.38
2023-02-19T16:59:55.147Z,304.73
2023-02-19T17:02:25.497Z,287.70
2023-02-19T17:04:55.120Z,298.27
2023-02-19T17:07:23.436Z,285.30
2023-02-19T17:09:52.500Z,296.98
2023-02-19T17:12:20.216Z,318.48
2023-02-19T17:14:47.827Z,281.77
2023-02-19T17:17:16.053Z,273.92
2023-02-19T17:19:43.694Z,279.45
2023-02-19T17:22:16.651Z,284.83
2023-02-19T17:24:44.393Z,290.20
2023-02-19T17:27:14.244Z,286.73
2023-02-19T17:29:41.908Z,287.20
2023-02-19T17:32:09.742Z,283.52
2023-02-19T17:34:37.490Z,293.48
2023-02-19T17:37:05.188Z,314.75
2023-02-19T17:39:32.906Z,288.45
2023-02-19T17:42:00.562Z,297.73
2023-02-19T17:44:29.614Z,297.45
2023-02-19T17:46:57.362Z,292.98
2023-02-19T17:49:25.081Z,295.73
2023-02-19T17:51:52.763Z,287.80
2023-02-19T17:54:20.452Z,301.35
2023-02-19T17:56:48.141Z,266.75
2023-02-19T17:59:18.022Z,281.70
2023-02-19T18:01:47.272Z,285.27
2023-02-19T18:04:15.106Z,290.00
2023-02-19T18:06:43.248Z,282.13
2023-02-19T18:09:15.094Z,291.50
2023-02-19T18:11:45.536Z,291.40
2023-02-19T18:14:13.454Z,263.52
2023-02-19T18:16:49.773Z,286.88
2023-02-19T18:19:18.078Z,278.55
2023-02-19T18:21:45.843Z,264.90
2023-02-19T18:24:13.510Z,261.73
2023-02-19T18:26:41.544Z,273.17
2023-02-19T18:29:09.230Z,263.33
2023-02-19T18:31:37.929Z,267.98
2023-02-19T18:34:07.499Z,265.42
2023-02-19T18:36:35.137Z,273.92
2023-02-19T18:39:02.904Z,260.98
2023-02-19T18:41:30.566Z,268.10
2023-02-19T18:43:59.774Z,263.77
2023-02-19T18:46:27.439Z,261.65
2023-02-19T18:48:55.079Z,274.70
2023-02-19T18:51:24.346Z,262.50
2023-02-19T18:53:52.028Z,273.38
2023-02-19T18:56:19.728Z,274.48
2023-02-19T18:58:50.031Z,247.65
2023-02-19T19:01:18.583Z,265.65
2023-02-19T19:03:46.391Z,261.70
2023-02-19T19:06:14.055Z,276.40
2023-02-19T19:08:43.071Z,263.60
2023-02-19T19:11:11.012Z,264.25
2023-02-19T19:13:39.017Z,272.63
2023-02-19T19:16:07.064Z,259.52
2023-02-19T19:18:38.032Z,258.92
2023-02-19T19:21:06.497Z,266.25
2023-02-19T19:23:34.157Z,266.52
2023-02-19T19:26:05.749Z,270.27
2023-02-19T19:28:33.638Z,251.85
2023-02-19T19:31:01.583Z,269.45
2023-02-19T19:33:30.527Z,277.55
2023-02-19T19:35:58.281Z,247.75
2023-02-19T19:38:26.390Z,240.65
2023-02-19T19:40:54.085Z,249.52
2023-02-19T19:43:23.102Z,261.13
2023-02-19T19:45:51.031Z,257.83
2023-02-19T19:48:18.818Z,248.65
2023-02-19T19:50:46.672Z,250.93
2023-02-19T19:53:14.602Z,247.27
2023-02-19T19:55:42.210Z,248.68
2023-02-19T19:58:09.847Z,256.95
2023-02-19T20:00:38.829Z,252.70
2023-02-19T20:03:06.868Z,255.07
2023-02-19T20:05:34.611Z,250.48
2023-02-19T20:08:02.450Z,256.73
2023-02-19T20:10:30.150Z,278.48
2023-02-19T20:12:57.810Z,277.52
2023-02-19T20:15:25.485Z,268.00
2023-02-19T20:17:54.590Z,258.80
2023-02-19T20:20:22.644Z,262.92
2023-02-19T20:22:51.742Z,257.42
2023-02-19T20:25:20.873Z,257.73
2023-02-19T20:27:48.769Z,253.30
2023-02-19T20:30:19.639Z,265.30
2023-02-19T20:32:47.347Z,249.13
2023-02-19T20:35:17.088Z,248.48
2023-02-19T20:37:47.870Z,255.48
2023-02-19T20:40:18.368Z,251.93
2023-02-19T20:42:46.495Z,257.92
2023-02-19T20:45:16.649Z,237.23
2023-02-19T20:47:44.502Z,268.73
2023-02-19T20:50:12.997Z,258.65
2023-02-19T20:52:42.011Z,246.00
2023-02-19T20:55:10.827Z,251.37
2023-02-19T20:57:38.477Z,238.88
2023-02-19T21:00:08.217Z,231.70
2023-02-19T21:02:35.975Z,260.50
2023-02-19T21:05:04.334Z,248.82
2023-02-19T21:07:32.042Z,262.73
2023-02-19T21:10:01.064Z,252.25
2023-02-19T21:12:28.699Z,248.53
2023-02-19T21:14:56.509Z,247.55
2023-02-19T21:17:24.165Z,255.23
2023-02-19T21:19:51.873Z,257.70
2023-02-19T21:22:19.692Z,253.65
2023-02-19T21:24:51.951Z,257.17
2023-02-19T21:27:21.436Z,262.38
2023-02-19T21:29:49.076Z,274.02
2023-02-19T21:32:16.874Z,249.82
2023-02-19T21:34:44.619Z,243.63
2023-02-19T21:37:12.336Z,263.85
2023-02-19T21:39:40.019Z,244.15
2023-02-19T21:42:07.723Z,243.70
2023-02-19T21:44:36.790Z,237.13
2023-02-19T21:47:04.550Z,256.13
2023-02-19T21:49:32.276Z,243.57
2023-02-19T21:52:00.015Z,247.05
2023-02-19T21:54:27.763Z,234.82
2023-02-19T21:56:55.842Z,237.40
2023-02-19T21:59:24.027Z,246.10
2023-02-19T22:01:53.016Z,223.30
2023-02-19T22:04:24.447Z,250.90
2023-02-19T22:06:55.894Z,221.18
2023-02-19T22:09:24.059Z,243.52
2023-02-19T22:11:52.260Z,246.57
2023-02-19T22:14:19.936Z,243.57
2023-02-19T22:16:48.012Z,235.50
2023-02-19T22:19:17.161Z,238.87
2023-02-19T22:21:45.623Z,242.98
2023-02-19T22:24:16.553Z,233.93
2023-02-19T22:26:44.909Z,251.68
2023-02-19T22:29:14.401Z,257.87
2023-02-19T22:31:42.528Z,232.70
2023-02-19T22:34:10.479Z,247.60
2023-02-19T22:36:40.268Z,255.93
2023-02-19T22:39:10.018Z,251.65
2023-02-19T22:41:42.776Z,254.85
2023-02-19T22:44:11.089Z,239.43
2023-02-19T22:46:38.752Z,240.63
2023-02-19T22:49:07.557Z,237.40
2023-02-19T22:51:36.429Z,233.70
2023-02-19T22:54:05.942Z,250.02
2023-02-19T22:56:33.674Z,244.93
2023-02-19T22:59:01.406Z,255.85
2023-02-19T23:01:29.190Z,238.27
2023-02-19T23:03:58.840Z,242.13
2023-02-19T23:06:28.838Z,253.65
2023-02-19T23:08:58.224Z,251.00
2023-02-19T23:11:29.588Z,242.18
2023-02-19T23:13:57.368Z,239.20
2023-02-19T23:16:25.504Z,229.95
2023-02-19T23:18:53.370Z,235.23
2023-02-19T23:21:23.039Z,244.93
2023-02-19T23:23:50.975Z,240.73
2023-02-19T23:26:19.464Z,254.83
2023-02-19T23:28:48.843Z,267.27
2023-02-19T23:31:17.326Z,250.38
2023-02-19T23:33:45.521Z,227.40
2023-02-19T23:36:14.993Z,246.00
2023-02-19T23:38:45.243Z,246.43
2023-02-19T23:41:15.592Z,237.17
2023-02-19T23:43:43.689Z,247.07
2023-02-19T23:46:17.271Z,246.98
2023-02-19T23:48:46.930Z,232.93
2023-02-19T23:51:14.962Z,249.93
2023-02-19T23:53:42.669Z,238.73
2023-02-19T23:56:10.419Z,250.83
2023-02-19T23:58:38.091Z,245.20
